sensor_id;sensor_type;location;lat;lon;timestamp;P1;durP1;ratioP1;P2;durP2;ratioP2
25905;SDS011;13713;52.552;13.204;2022-08-21T00:00:40;15.30;;;12.50;;
25905;SDS011;13713;52.552;13.204;2022-08-21T00:03:06;17.20;;;13.93;;
25905;SDS011;13713;52.552;13.204;2022-08-21T00:05:36;16.52;;;13.32;;
25905;SDS011;13713;52.552;13.204;2022-08-21T00:08:04;15.05;;;13.15;;
25905;SDS011;13713;52.552;13.204;2022-08-21T00:10:30;15.75;;;12.98;;
25905;SDS011;13713;52.552;13.204;2022-08-21T00:12:56;17.00;;;12.98;;
25905;SDS011;13713;52.552;13.204;2022-08-21T00:15:23;16.00;;;13.00;;
25905;SDS011;13713;52.552;13.204;2022-08-21T00:17:52;15.93;;;12.77;;
25905;SDS011;13713;52.552;13.204;2022-08-21T00:20:18;16.30;;;13.45;;
25905;SDS011;13713;52.552;13.204;2022-08-21T00:22:45;17.67;;;13.65;;
25905;SDS011;13713;52.552;13.204;2022-08-21T00:25:11;16.83;;;14.00;;
25905;SDS011;13713;52.552;13.204;2022-08-21T00:27:37;16.23;;;12.68;;
25905;SDS011;13713;52.552;13.204;2022-08-21T00:30:04;16.25;;;13.20;;
25905;SDS011;13713;52.552;13.204;2022-08-21T00:32:31;16.75;;;13.65;;
25905;SDS011;13713;52.552;13.204;2022-08-21T00:34:58;16.42;;;13.00;;
25905;SDS011;13713;52.552;13.204;2022-08-21T00:37:24;15.68;;;12.63;;
25905;SDS011;13713;52.552;13.204;2022-08-21T00:39:49;15.48;;;12.73;;
25905;SDS011;13713;52.552;13.204;2022-08-21T00:42:16;14.38;;;11.65;;
25905;SDS011;13713;52.552;13.204;2022-08-21T00:44:43;15.43;;;12.40;;
25905;SDS011;13713;52.552;13.204;2022-08-21T00:47:11;15.98;;;13.18;;
25905;SDS011;13713;52.552;13.204;2022-08-21T00:49:37;16.48;;;13.18;;
25905;SDS011;13713;52.552;13.204;2022-08-21T00:52:04;15.88;;;13.07;;
25905;SDS011;13713;52.552;13.204;2022-08-21T00:54:33;15.15;;;12.50;;
25905;SDS011;13713;52.552;13.204;2022-08-21T00:57:01;14.65;;;12.00;;
25905;SDS011;13713;52.552;13.204;2022-08-21T00:59:31;15.77;;;13.05;;
25905;SDS011;13713;52.552;13.204;2022-08-21T01:02:00;14.95;;;12.13;;
25905;SDS011;13713;52.552;13.204;2022-08-21T01:04:26;15.70;;;12.93;;
25905;SDS011;13713;52.552;13.204;2022-08-21T01:06:51;14.93;;;12.43;;
25905;SDS011;13713;52.552;13.204;2022-08-21T01:09:17;14.68;;;12.32;;
25905;SDS011;13713;52.552;13.204;2022-08-21T01:11:43;14.18;;;12.10;;
25905;SDS011;13713;52.552;13.204;2022-08-21T01:14:10;15.23;;;12.32;;
25905;SDS011;13713;52.552;13.204;2022-08-21T01:16:38;15.75;;;13.10;;
25905;SDS011;13713;52.552;13.204;2022-08-21T01:19:09;14.70;;;11.95;;
25905;SDS011;13713;52.552;13.204;2022-08-21T01:21:36;14.43;;;11.88;;
25905;SDS011;13713;52.552;13.204;2022-08-21T01:24:02;14.55;;;12.27;;
25905;SDS011;13713;52.552;13.204;2022-08-21T01:26:29;15.40;;;12.57;;
25905;SDS011;13713;52.552;13.204;2022-08-21T01:29:00;16.00;;;12.73;;
25905;SDS011;13713;52.552;13.204;2022-08-21T01:31:49;14.63;;;11.68;;
25905;SDS011;13713;52.552;13.204;2022-08-21T01:34:15;15.75;;;12.07;;
25905;SDS011;13713;52.552;13.204;2022-08-21T01:36:42;13.65;;;11.13;;
25905;SDS011;13713;52.552;13.204;2022-08-21T01:39:09;15.38;;;12.63;;
25905;SDS011;13713;52.552;13.204;2022-08-21T01:41:35;15.02;;;12.77;;
25905;SDS011;13713;52.552;13.204;2022-08-21T01:44:00;16.02;;;12.82;;
25905;SDS011;13713;52.552;13.204;2022-08-21T01:46:26;13.70;;;11.30;;
25905;SDS011;13713;52.552;13.204;2022-08-21T01:48:52;14.10;;;12.32;;
25905;SDS011;13713;52.552;13.204;2022-08-21T01:51:17;14.10;;;11.88;;
25905;SDS011;13713;52.552;13.204;2022-08-21T01:53:43;14.82;;;11.63;;
25905;SDS011;13713;52.552;13.204;2022-08-21T01:56:10;15.07;;;12.38;;
25905;SDS011;13713;52.552;13.204;2022-08-21T01:58:37;15.40;;;11.52;;
25905;SDS011;13713;52.552;13.204;2022-08-21T02:01:04;14.85;;;12.55;;
25905;SDS011;13713;52.552;13.204;2022-08-21T02:03:30;14.15;;;11.80;;
25905;SDS011;13713;52.552;13.204;2022-08-21T02:05:56;12.55;;;11.10;;
25905;SDS011;13713;52.552;13.204;2022-08-21T02:08:22;14.45;;;11.45;;
25905;SDS011;13713;52.552;13.204;2022-08-21T02:10:49;14.10;;;11.23;;
25905;SDS011;13713;52.552;13.204;2022-08-21T02:13:16;14.45;;;12.00;;
25905;SDS011;13713;52.552;13.204;2022-08-21T02:15:42;14.38;;;11.73;;
25905;SDS011;13713;52.552;13.204;2022-08-21T02:18:09;13.50;;;11.10;;
25905;SDS011;13713;52.552;13.204;2022-08-21T02:20:46;13.93;;;11.15;;
25905;SDS011;13713;52.552;13.204;2022-08-21T02:23:13;13.45;;;11.43;;
25905;SDS011;13713;52.552;13.204;2022-08-21T02:25:39;14.25;;;10.85;;
25905;SDS011;13713;52.552;13.204;2022-08-21T02:28:07;13.65;;;11.30;;
25905;SDS011;13713;52.552;13.204;2022-08-21T02:30:35;15.05;;;12.35;;
25905;SDS011;13713;52.552;13.204;2022-08-21T02:33:04;13.70;;;11.43;;
25905;SDS011;13713;52.552;13.204;2022-08-21T02:35:30;12.65;;;10.50;;
25905;SDS011;13713;52.552;13.204;2022-08-21T02:37:57;14.60;;;11.20;;
25905;SDS011;13713;52.552;13.204;2022-08-21T02:40:26;13.65;;;11.38;;
25905;SDS011;13713;52.552;13.204;2022-08-21T02:42:55;14.18;;;11.52;;
25905;SDS011;13713;52.552;13.204;2022-08-21T02:45:22;13.60;;;11.02;;
25905;SDS011;13713;52.552;13.204;2022-08-21T02:47:59;12.85;;;11.40;;
25905;SDS011;13713;52.552;13.204;2022-08-21T02:50:30;15.03;;;11.00;;
25905;SDS011;13713;52.552;13.204;2022-08-21T02:52:57;12.52;;;11.07;;
25905;SDS011;13713;52.552;13.204;2022-08-21T02:55:26;13.75;;;11.32;;
25905;SDS011;13713;52.552;13.204;2022-08-21T02:57:54;13.80;;;11.35;;
25905;SDS011;13713;52.552;13.204;2022-08-21T03:00:22;14.60;;;11.55;;
25905;SDS011;13713;52.552;13.204;2022-08-21T03:02:50;12.65;;;11.18;;
25905;SDS011;13713;52.552;13.204;2022-08-21T03:05:19;14.00;;;11.25;;
25905;SDS011;13713;52.552;13.204;2022-08-21T03:07:45;14.50;;;11.52;;
25905;SDS011;13713;52.552;13.204;2022-08-21T03:10:12;13.85;;;10.70;;
25905;SDS011;13713;52.552;13.204;2022-08-21T03:12:38;12.82;;;10.45;;
25905;SDS011;13713;52.552;13.204;2022-08-21T03:15:08;13.35;;;10.77;;
25905;SDS011;13713;52.552;13.204;2022-08-21T03:20:03;12.18;;;10.13;;
25905;SDS011;13713;52.552;13.204;2022-08-21T03:22:30;13.00;;;10.73;;
25905;SDS011;13713;52.552;13.204;2022-08-21T03:24:55;13.60;;;11.55;;
25905;SDS011;13713;52.552;13.204;2022-08-21T03:27:22;12.82;;;10.50;;
25905;SDS011;13713;52.552;13.204;2022-08-21T03:29:51;12.27;;;10.05;;
25905;SDS011;13713;52.552;13.204;2022-08-21T03:32:17;13.07;;;10.73;;
25905;SDS011;13713;52.552;13.204;2022-08-21T03:34:44;13.50;;;11.20;;
25905;SDS011;13713;52.552;13.204;2022-08-21T03:37:11;12.68;;;10.32;;
25905;SDS011;13713;52.552;13.204;2022-08-21T03:39:38;12.73;;;10.68;;
25905;SDS011;13713;52.552;13.204;2022-08-21T03:42:04;13.05;;;10.88;;
25905;SDS011;13713;52.552;13.204;2022-08-21T03:44:30;12.82;;;10.30;;
25905;SDS011;13713;52.552;13.204;2022-08-21T03:46:56;11.20;;;9.57;;
25905;SDS011;13713;52.552;13.204;2022-08-21T03:49:22;15.00;;;10.43;;
25905;SDS011;13713;52.552;13.204;2022-08-21T03:51:48;12.98;;;10.45;;
25905;SDS011;13713;52.552;13.204;2022-08-21T03:54:14;12.40;;;10.45;;
25905;SDS011;13713;52.552;13.204;2022-08-21T03:56:40;12.35;;;10.07;;
25905;SDS011;13713;52.552;13.204;2022-08-21T03:59:05;12.63;;;10.18;;
25905;SDS011;13713;52.552;13.204;2022-08-21T04:01:31;11.93;;;9.73;;
25905;SDS011;13713;52.552;13.204;2022-08-21T04:03:57;11.98;;;9.85;;
25905;SDS011;13713;52.552;13.204;2022-08-21T04:06:23;11.82;;;9.80;;
25905;SDS011;13713;52.552;13.204;2022-08-21T04:08:51;12.15;;;9.93;;
25905;SDS011;13713;52.552;13.204;2022-08-21T04:11:17;12.30;;;9.98;;
25905;SDS011;13713;52.552;13.204;2022-08-21T04:13:43;12.65;;;10.02;;
25905;SDS011;13713;52.552;13.204;2022-08-21T04:16:09;12.07;;;10.50;;
25905;SDS011;13713;52.552;13.204;2022-08-21T04:18:34;11.50;;;9.43;;
25905;SDS011;13713;52.552;13.204;2022-08-21T04:21:00;13.07;;;10.15;;
25905;SDS011;13713;52.552;13.204;2022-08-21T04:23:27;13.10;;;10.10;;
25905;SDS011;13713;52.552;13.204;2022-08-21T04:25:54;11.60;;;10.00;;
25905;SDS011;13713;52.552;13.204;2022-08-21T04:28:21;12.50;;;9.93;;
25905;SDS011;13713;52.552;13.204;2022-08-21T04:30:48;11.93;;;9.55;;
25905;SDS011;13713;52.552;13.204;2022-08-21T04:33:16;11.35;;;9.70;;
25905;SDS011;13713;52.552;13.204;2022-08-21T04:35:43;12.88;;;9.88;;
25905;SDS011;13713;52.552;13.204;2022-08-21T04:38:08;12.75;;;9.75;;
25905;SDS011;13713;52.552;13.204;2022-08-21T04:40:34;12.07;;;9.98;;
25905;SDS011;13713;52.552;13.204;2022-08-21T04:43:01;12.82;;;10.13;;
25905;SDS011;13713;52.552;13.204;2022-08-21T04:45:31;10.10;;;8.73;;
25905;SDS011;13713;52.552;13.204;2022-08-21T04:47:58;11.32;;;9.85;;
25905;SDS011;13713;52.552;13.204;2022-08-21T04:50:30;10.88;;;9.10;;
25905;SDS011;13713;52.552;13.204;2022-08-21T04:53:07;13.10;;;9.38;;
25905;SDS011;13713;52.552;13.204;2022-08-21T04:55:36;11.38;;;9.30;;
25905;SDS011;13713;52.552;13.204;2022-08-21T04:58:04;10.23;;;9.13;;
25905;SDS011;13713;52.552;13.204;2022-08-21T05:00:31;12.38;;;9.38;;
25905;SDS011;13713;52.552;13.204;2022-08-21T05:02:57;10.18;;;8.80;;
25905;SDS011;13713;52.552;13.204;2022-08-21T05:05:25;11.05;;;9.27;;
25905;SDS011;13713;52.552;13.204;2022-08-21T05:07:53;11.32;;;9.55;;
25905;SDS011;13713;52.552;13.204;2022-08-21T05:10:21;10.23;;;8.45;;
25905;SDS011;13713;52.552;13.204;2022-08-21T05:12:47;10.57;;;8.30;;
25905;SDS011;13713;52.552;13.204;2022-08-21T05:15:14;10.90;;;9.30;;
25905;SDS011;13713;52.552;13.204;2022-08-21T05:17:41;11.75;;;9.95;;
25905;SDS011;13713;52.552;13.204;2022-08-21T05:20:08;11.23;;;9.43;;
25905;SDS011;13713;52.552;13.204;2022-08-21T05:22:35;10.77;;;8.95;;
25905;SDS011;13713;52.552;13.204;2022-08-21T05:25:00;11.13;;;9.07;;
25905;SDS011;13713;52.552;13.204;2022-08-21T05:27:27;10.88;;;9.55;;
25905;SDS011;13713;52.552;13.204;2022-08-21T05:29:55;11.10;;;9.32;;
25905;SDS011;13713;52.552;13.204;2022-08-21T05:32:21;9.73;;;8.68;;
25905;SDS011;13713;52.552;13.204;2022-08-21T05:34:47;11.20;;;9.43;;
25905;SDS011;13713;52.552;13.204;2022-08-21T05:37:12;9.55;;;8.05;;
25905;SDS011;13713;52.552;13.204;2022-08-21T05:39:38;11.55;;;9.15;;
25905;SDS011;13713;52.552;13.204;2022-08-21T05:42:04;10.73;;;8.82;;
25905;SDS011;13713;52.552;13.204;2022-08-21T05:44:30;10.18;;;9.05;;
25905;SDS011;13713;52.552;13.204;2022-08-21T05:47:01;10.90;;;8.93;;
25905;SDS011;13713;52.552;13.204;2022-08-21T05:49:28;11.52;;;9.95;;
25905;SDS011;13713;52.552;13.204;2022-08-21T05:51:54;11.02;;;8.88;;
25905;SDS011;13713;52.552;13.204;2022-08-21T05:54:19;10.63;;;8.73;;
25905;SDS011;13713;52.552;13.204;2022-08-21T05:56:45;10.13;;;8.70;;
25905;SDS011;13713;52.552;13.204;2022-08-21T05:59:10;12.95;;;9.32;;
25905;SDS011;13713;52.552;13.204;2022-08-21T06:01:36;10.73;;;8.55;;
25905;SDS011;13713;52.552;13.204;2022-08-21T06:04:02;10.60;;;8.65;;
25905;SDS011;13713;52.552;13.204;2022-08-21T06:06:28;12.32;;;9.23;;
25905;SDS011;13713;52.552;13.204;2022-08-21T06:08:53;13.18;;;8.57;;
25905;SDS011;13713;52.552;13.204;2022-08-21T06:11:19;11.15;;;8.93;;
25905;SDS011;13713;52.552;13.204;2022-08-21T06:13:44;10.10;;;8.02;;
25905;SDS011;13713;52.552;13.204;2022-08-21T06:16:11;10.45;;;8.63;;
25905;SDS011;13713;52.552;13.204;2022-08-21T06:18:38;10.40;;;8.45;;
25905;SDS011;13713;52.552;13.204;2022-08-21T06:21:04;10.82;;;8.50;;
25905;SDS011;13713;52.552;13.204;2022-08-21T06:23:31;10.63;;;8.80;;
25905;SDS011;13713;52.552;13.204;2022-08-21T06:25:57;11.65;;;9.07;;
25905;SDS011;13713;52.552;13.204;2022-08-21T06:28:23;10.07;;;8.13;;
25905;SDS011;13713;52.552;13.204;2022-08-21T06:30:49;10.10;;;8.55;;
25905;SDS011;13713;52.552;13.204;2022-08-21T06:33:14;11.07;;;8.55;;
25905;SDS011;13713;52.552;13.204;2022-08-21T06:35:40;11.93;;;9.05;;
25905;SDS011;13713;52.552;13.204;2022-08-21T06:38:06;11.88;;;8.88;;
25905;SDS011;13713;52.552;13.204;2022-08-21T06:40:32;10.77;;;8.48;;
25905;SDS011;13713;52.552;13.204;2022-08-21T06:42:58;11.20;;;8.55;;
25905;SDS011;13713;52.552;13.204;2022-08-21T06:45:29;9.90;;;8.35;;
25905;SDS011;13713;52.552;13.204;2022-08-21T06:47:55;9.63;;;8.48;;
25905;SDS011;13713;52.552;13.204;2022-08-21T06:50:20;8.50;;;7.53;;
25905;SDS011;13713;52.552;13.204;2022-08-21T06:52:46;9.00;;;7.28;;
25905;SDS011;13713;52.552;13.204;2022-08-21T06:55:12;9.60;;;8.13;;
25905;SDS011;13713;52.552;13.204;2022-08-21T06:57:37;9.43;;;8.15;;
25905;SDS011;13713;52.552;13.204;2022-08-21T07:00:04;10.00;;;8.18;;
25905;SDS011;13713;52.552;13.204;2022-08-21T07:02:30;10.32;;;8.20;;
25905;SDS011;13713;52.552;13.204;2022-08-21T07:04:58;10.75;;;8.40;;
25905;SDS011;13713;52.552;13.204;2022-08-21T07:07:24;10.63;;;8.90;;
25905;SDS011;13713;52.552;13.204;2022-08-21T07:09:49;11.07;;;8.13;;
25905;SDS011;13713;52.552;13.204;2022-08-21T07:12:15;10.13;;;8.25;;
25905;SDS011;13713;52.552;13.204;2022-08-21T07:14:41;9.98;;;8.20;;
25905;SDS011;13713;52.552;13.204;2022-08-21T07:17:07;10.05;;;8.43;;
25905;SDS011;13713;52.552;13.204;2022-08-21T07:19:33;9.95;;;7.93;;
25905;SDS011;13713;52.552;13.204;2022-08-21T07:22:00;9.85;;;7.85;;
25905;SDS011;13713;52.552;13.204;2022-08-21T07:24:26;10.32;;;8.00;;
25905;SDS011;13713;52.552;13.204;2022-08-21T07:26:53;9.70;;;7.65;;
25905;SDS011;13713;52.552;13.204;2022-08-21T07:29:18;9.88;;;8.20;;
25905;SDS011;13713;52.552;13.204;2022-08-21T07:31:44;9.60;;;7.57;;
25905;SDS011;13713;52.552;13.204;2022-08-21T07:34:10;13.00;;;8.77;;
25905;SDS011;13713;52.552;13.204;2022-08-21T07:36:36;8.93;;;7.22;;
25905;SDS011;13713;52.552;13.204;2022-08-21T07:39:02;8.82;;;7.60;;
25905;SDS011;13713;52.552;13.204;2022-08-21T07:41:28;10.50;;;7.63;;
25905;SDS011;13713;52.552;13.204;2022-08-21T07:43:57;10.00;;;7.72;;
25905;SDS011;13713;52.552;13.204;2022-08-21T07:46:24;10.32;;;8.30;;
25905;SDS011;13713;52.552;13.204;2022-08-21T07:48:50;8.85;;;7.72;;
25905;SDS011;13713;52.552;13.204;2022-08-21T07:51:17;9.40;;;8.02;;
25905;SDS011;13713;52.552;13.204;2022-08-21T07:53:49;9.38;;;7.95;;
25905;SDS011;13713;52.552;13.204;2022-08-21T07:58:42;10.20;;;8.43;;
25905;SDS011;13713;52.552;13.204;2022-08-21T08:01:08;10.40;;;8.23;;
25905;SDS011;13713;52.552;13.204;2022-08-21T08:03:34;10.25;;;7.85;;
25905;SDS011;13713;52.552;13.204;2022-08-21T08:06:00;10.43;;;8.02;;
25905;SDS011;13713;52.552;13.204;2022-08-21T08:08:29;9.75;;;7.28;;
25905;SDS011;13713;52.552;13.204;2022-08-21T08:10:55;10.15;;;7.90;;
25905;SDS011;13713;52.552;13.204;2022-08-21T08:13:23;10.27;;;7.68;;
25905;SDS011;13713;52.552;13.204;2022-08-21T08:15:49;10.85;;;8.00;;
25905;SDS011;13713;52.552;13.204;2022-08-21T08:18:15;9.63;;;7.72;;
25905;SDS011;13713;52.552;13.204;2022-08-21T08:20:41;10.93;;;7.80;;
25905;SDS011;13713;52.552;13.204;2022-08-21T08:23:09;8.82;;;7.30;;
25905;SDS011;13713;52.552;13.204;2022-08-21T08:25:38;8.27;;;7.22;;
25905;SDS011;13713;52.552;13.204;2022-08-21T08:28:04;8.75;;;7.25;;
25905;SDS011;13713;52.552;13.204;2022-08-21T08:30:30;10.00;;;7.72;;
25905;SDS011;13713;52.552;13.204;2022-08-21T08:32:56;8.60;;;6.75;;
25905;SDS011;13713;52.552;13.204;2022-08-21T08:35:22;8.60;;;6.93;;
25905;SDS011;13713;52.552;13.204;2022-08-21T08:37:50;9.40;;;8.38;;
25905;SDS011;13713;52.552;13.204;2022-08-21T08:40:25;8.63;;;7.13;;
25905;SDS011;13713;52.552;13.204;2022-08-21T08:43:10;8.50;;;7.22;;
25905;SDS011;13713;52.552;13.204;2022-08-21T08:45:39;8.05;;;6.88;;
25905;SDS011;13713;52.552;13.204;2022-08-21T08:48:09;8.55;;;7.22;;
25905;SDS011;13713;52.552;13.204;2022-08-21T08:53:45;8.43;;;6.88;;
25905;SDS011;13713;52.552;13.204;2022-08-21T08:56:29;8.15;;;6.82;;
25905;SDS011;13713;52.552;13.204;2022-08-21T08:58:59;9.52;;;7.18;;
25905;SDS011;13713;52.552;13.204;2022-08-21T09:01:32;8.63;;;7.38;;
25905;SDS011;13713;52.552;13.204;2022-08-21T09:03:57;10.90;;;7.57;;
25905;SDS011;13713;52.552;13.204;2022-08-21T09:12:11;10.32;;;7.32;;
25905;SDS011;13713;52.552;13.204;2022-08-21T09:14:58;9.07;;;7.50;;
25905;SDS011;13713;52.552;13.204;2022-08-21T09:20:33;7.95;;;6.75;;
25905;SDS011;13713;52.552;13.204;2022-08-21T09:26:15;7.95;;;6.65;;
25905;SDS011;13713;52.552;13.204;2022-08-21T09:28:43;9.18;;;7.00;;
25905;SDS011;13713;52.552;13.204;2022-08-21T09:31:26;10.38;;;7.70;;
25905;SDS011;13713;52.552;13.204;2022-08-21T09:34:02;8.60;;;6.97;;
25905;SDS011;13713;52.552;13.204;2022-08-21T09:36:37;9.45;;;7.22;;
25905;SDS011;13713;52.552;13.204;2022-08-21T09:39:09;8.30;;;7.30;;
25905;SDS011;13713;52.552;13.204;2022-08-21T09:41:37;7.55;;;6.63;;
25905;SDS011;13713;52.552;13.204;2022-08-21T09:44:04;8.18;;;6.93;;
25905;SDS011;13713;52.552;13.204;2022-08-21T09:46:31;8.45;;;6.65;;
25905;SDS011;13713;52.552;13.204;2022-08-21T09:48:59;10.85;;;7.88;;
25905;SDS011;13713;52.552;13.204;2022-08-21T09:53:56;9.77;;;7.07;;
25905;SDS011;13713;52.552;13.204;2022-08-21T09:56:26;7.88;;;6.25;;
25905;SDS011;13713;52.552;13.204;2022-08-21T09:59:31;7.93;;;6.70;;
25905;SDS011;13713;52.552;13.204;2022-08-21T10:02:03;8.57;;;6.97;;
25905;SDS011;13713;52.552;13.204;2022-08-21T10:04:51;7.60;;;6.38;;
25905;SDS011;13713;52.552;13.204;2022-08-21T10:07:20;9.43;;;7.40;;
25905;SDS011;13713;52.552;13.204;2022-08-21T10:09:58;9.50;;;6.78;;
25905;SDS011;13713;52.552;13.204;2022-08-21T10:12:29;8.55;;;6.80;;
25905;SDS011;13713;52.552;13.204;2022-08-21T10:17:35;8.55;;;6.57;;
25905;SDS011;13713;52.552;13.204;2022-08-21T10:20:12;8.45;;;7.10;;
25905;SDS011;13713;52.552;13.204;2022-08-21T10:44:29;8.35;;;6.78;;
25905;SDS011;13713;52.552;13.204;2022-08-21T10:55:26;8.48;;;7.25;;
25905;SDS011;13713;52.552;13.204;2022-08-21T10:58:08;7.65;;;6.47;;
25905;SDS011;13713;52.552;13.204;2022-08-21T11:00:55;8.55;;;6.80;;
25905;SDS011;13713;52.552;13.204;2022-08-21T11:03:28;8.18;;;6.72;;
25905;SDS011;13713;52.552;13.204;2022-08-21T11:06:10;7.95;;;6.28;;
25905;SDS011;13713;52.552;13.204;2022-08-21T11:08:42;8.50;;;6.40;;
25905;SDS011;13713;52.552;13.204;2022-08-21T11:11:22;6.97;;;6.28;;
25905;SDS011;13713;52.552;13.204;2022-08-21T11:14:00;8.35;;;6.57;;
25905;SDS011;13713;52.552;13.204;2022-08-21T11:16:37;8.55;;;7.00;;
25905;SDS011;13713;52.552;13.204;2022-08-21T11:19:21;8.07;;;6.85;;
25905;SDS011;13713;52.552;13.204;2022-08-21T11:24:56;7.35;;;6.22;;
25905;SDS011;13713;52.552;13.204;2022-08-21T11:27:43;9.90;;;6.90;;
25905;SDS011;13713;52.552;13.204;2022-08-21T11:30:14;8.57;;;6.47;;
25905;SDS011;13713;52.552;13.204;2022-08-21T11:32:50;7.68;;;6.65;;
25905;SDS011;13713;52.552;13.204;2022-08-21T11:35:42;7.07;;;5.88;;
25905;SDS011;13713;52.552;13.204;2022-08-21T11:38:22;8.20;;;6.63;;
25905;SDS011;13713;52.552;13.204;2022-08-21T11:43:48;8.35;;;6.60;;
25905;SDS011;13713;52.552;13.204;2022-08-21T11:49:02;6.90;;;6.15;;
25905;SDS011;13713;52.552;13.204;2022-08-21T11:51:33;8.80;;;5.63;;
25905;SDS011;13713;52.552;13.204;2022-08-21T11:57:04;7.85;;;6.18;;
25905;SDS011;13713;52.552;13.204;2022-08-21T11:59:53;7.38;;;5.85;;
25905;SDS011;13713;52.552;13.204;2022-08-21T12:02:31;6.88;;;5.88;;
25905;SDS011;13713;52.552;13.204;2022-08-21T12:05:04;7.32;;;5.95;;
25905;SDS011;13713;52.552;13.204;2022-08-21T12:07:38;7.35;;;6.03;;
25905;SDS011;13713;52.552;13.204;2022-08-21T12:10:07;8.73;;;6.68;;
25905;SDS011;13713;52.552;13.204;2022-08-21T12:12:46;6.90;;;6.15;;
25905;SDS011;13713;52.552;13.204;2022-08-21T12:18:00;7.85;;;6.35;;
25905;SDS011;13713;52.552;13.204;2022-08-21T12:25:37;8.52;;;6.63;;
25905;SDS011;13713;52.552;13.204;2022-08-21T12:28:07;6.65;;;5.65;;
25905;SDS011;13713;52.552;13.204;2022-08-21T12:30:48;7.43;;;6.35;;
25905;SDS011;13713;52.552;13.204;2022-08-21T12:33:21;7.30;;;5.43;;
25905;SDS011;13713;52.552;13.204;2022-08-21T12:35:47;7.53;;;5.72;;
25905;SDS011;13713;52.552;13.204;2022-08-21T12:38:15;8.48;;;5.97;;
25905;SDS011;13713;52.552;13.204;2022-08-21T12:40:55;6.22;;;5.55;;
25905;SDS011;13713;52.552;13.204;2022-08-21T12:43:37;8.13;;;6.10;;
25905;SDS011;13713;52.552;13.204;2022-08-21T12:46:21;6.13;;;5.40;;
25905;SDS011;13713;52.552;13.204;2022-08-21T12:48:54;7.47;;;5.82;;
25905;SDS011;13713;52.552;13.204;2022-08-21T12:53:58;8.73;;;6.53;;
25905;SDS011;13713;52.552;13.204;2022-08-21T12:56:29;7.35;;;5.25;;
25905;SDS011;13713;52.552;13.204;2022-08-21T12:59:05;6.43;;;5.38;;
25905;SDS011;13713;52.552;13.204;2022-08-21T13:01:33;6.90;;;6.03;;
25905;SDS011;13713;52.552;13.204;2022-08-21T13:04:12;7.60;;;6.20;;
25905;SDS011;13713;52.552;13.204;2022-08-21T13:06:43;7.68;;;6.10;;
25905;SDS011;13713;52.552;13.204;2022-08-21T13:09:12;7.05;;;6.00;;
25905;SDS011;13713;52.552;13.204;2022-08-21T13:11:41;7.95;;;6.40;;
25905;SDS011;13713;52.552;13.204;2022-08-21T13:14:13;6.93;;;6.13;;
25905;SDS011;13713;52.552;13.204;2022-08-21T13:16:52;9.25;;;6.55;;
25905;SDS011;13713;52.552;13.204;2022-08-21T13:19:21;7.88;;;6.88;;
25905;SDS011;13713;52.552;13.204;2022-08-21T13:21:47;8.07;;;6.43;;
25905;SDS011;13713;52.552;13.204;2022-08-21T13:26:49;9.05;;;6.07;;
25905;SDS011;13713;52.552;13.204;2022-08-21T13:29:16;7.35;;;6.65;;
25905;SDS011;13713;52.552;13.204;2022-08-21T13:31:48;8.55;;;7.20;;
25905;SDS011;13713;52.552;13.204;2022-08-21T13:34:14;10.38;;;6.65;;
25905;SDS011;13713;52.552;13.204;2022-08-21T13:36:42;7.43;;;6.25;;
25905;SDS011;13713;52.552;13.204;2022-08-21T13:39:10;10.20;;;7.10;;
25905;SDS011;13713;52.552;13.204;2022-08-21T13:41:38;7.40;;;6.22;;
25905;SDS011;13713;52.552;13.204;2022-08-21T13:44:18;7.65;;;6.65;;
25905;SDS011;13713;52.552;13.204;2022-08-21T13:47:01;8.80;;;6.97;;
25905;SDS011;13713;52.552;13.204;2022-08-21T13:49:30;7.95;;;6.63;;
25905;SDS011;13713;52.552;13.204;2022-08-21T13:52:02;8.18;;;6.90;;
25905;SDS011;13713;52.552;13.204;2022-08-21T13:54:33;8.27;;;6.55;;
25905;SDS011;13713;52.552;13.204;2022-08-21T13:57:00;8.57;;;7.00;;
25905;SDS011;13713;52.552;13.204;2022-08-21T13:59:27;7.60;;;6.72;;
25905;SDS011;13713;52.552;13.204;2022-08-21T14:02:08;7.80;;;6.55;;
25905;SDS011;13713;52.552;13.204;2022-08-21T14:04:41;9.38;;;7.32;;
25905;SDS011;13713;52.552;13.204;2022-08-21T14:07:17;8.95;;;7.50;;
25905;SDS011;13713;52.552;13.204;2022-08-21T14:09:46;7.50;;;6.55;;
25905;SDS011;13713;52.552;13.204;2022-08-21T14:12:16;9.55;;;7.68;;
25905;SDS011;13713;52.552;13.204;2022-08-21T14:14:57;7.38;;;6.63;;
25905;SDS011;13713;52.552;13.204;2022-08-21T14:17:32;8.60;;;7.15;;
25905;SDS011;13713;52.552;13.204;2022-08-21T14:20:02;9.30;;;6.95;;
25905;SDS011;13713;52.552;13.204;2022-08-21T14:30:19;8.18;;;7.18;;
25905;SDS011;13713;52.552;13.204;2022-08-21T14:32:51;8.35;;;6.72;;
25905;SDS011;13713;52.552;13.204;2022-08-21T14:35:17;8.88;;;7.30;;
25905;SDS011;13713;52.552;13.204;2022-08-21T14:37:43;9.93;;;7.50;;
25905;SDS011;13713;52.552;13.204;2022-08-21T14:40:10;7.90;;;7.10;;
25905;SDS011;13713;52.552;13.204;2022-08-21T14:42:36;8.07;;;6.85;;
25905;SDS011;13713;52.552;13.204;2022-08-21T14:45:07;8.73;;;7.15;;
25905;SDS011;13713;52.552;13.204;2022-08-21T14:47:53;8.07;;;6.83;;
25905;SDS011;13713;52.552;13.204;2022-08-21T14:50:19;8.00;;;6.95;;
25905;SDS011;13713;52.552;13.204;2022-08-21T14:52:45;8.57;;;7.65;;
25905;SDS011;13713;52.552;13.204;2022-08-21T14:55:12;8.88;;;7.97;;
25905;SDS011;13713;52.552;13.204;2022-08-21T14:57:40;8.48;;;7.60;;
25905;SDS011;13713;52.552;13.204;2022-08-21T15:00:16;8.23;;;7.05;;
25905;SDS011;13713;52.552;13.204;2022-08-21T15:02:47;9.15;;;7.35;;
25905;SDS011;13713;52.552;13.204;2022-08-21T15:05:12;9.10;;;7.78;;
25905;SDS011;13713;52.552;13.204;2022-08-21T15:07:38;8.68;;;7.70;;
25905;SDS011;13713;52.552;13.204;2022-08-21T15:10:04;9.48;;;7.47;;
25905;SDS011;13713;52.552;13.204;2022-08-21T15:12:31;8.70;;;7.80;;
25905;SDS011;13713;52.552;13.204;2022-08-21T15:14:57;8.60;;;7.80;;
25905;SDS011;13713;52.552;13.204;2022-08-21T15:17:23;9.48;;;8.05;;
25905;SDS011;13713;52.552;13.204;2022-08-21T15:19:49;8.68;;;7.80;;
25905;SDS011;13713;52.552;13.204;2022-08-21T15:22:15;9.05;;;7.47;;
25905;SDS011;13713;52.552;13.204;2022-08-21T15:24:41;8.75;;;7.88;;
25905;SDS011;13713;52.552;13.204;2022-08-21T15:27:08;8.77;;;7.60;;
25905;SDS011;13713;52.552;13.204;2022-08-21T15:29:35;8.75;;;7.80;;
25905;SDS011;13713;52.552;13.204;2022-08-21T15:32:23;9.13;;;8.18;;
25905;SDS011;13713;52.552;13.204;2022-08-21T15:34:53;9.90;;;8.65;;
25905;SDS011;13713;52.552;13.204;2022-08-21T15:37:19;9.63;;;7.45;;
25905;SDS011;13713;52.552;13.204;2022-08-21T15:39:46;9.45;;;8.07;;
25905;SDS011;13713;52.552;13.204;2022-08-21T15:42:12;11.07;;;8.75;;
25905;SDS011;13713;52.552;13.204;2022-08-21T15:44:41;9.88;;;8.70;;
25905;SDS011;13713;52.552;13.204;2022-08-21T15:47:18;10.40;;;8.65;;
25905;SDS011;13713;52.552;13.204;2022-08-21T15:49:46;9.27;;;7.80;;
25905;SDS011;13713;52.552;13.204;2022-08-21T15:52:15;9.15;;;7.78;;
25905;SDS011;13713;52.552;13.204;2022-08-21T15:54:42;9.07;;;7.60;;
25905;SDS011;13713;52.552;13.204;2022-08-21T15:57:12;9.02;;;8.13;;
25905;SDS011;13713;52.552;13.204;2022-08-21T16:02:12;9.60;;;7.78;;
25905;SDS011;13713;52.552;13.204;2022-08-21T16:07:14;10.18;;;7.85;;